createdAt,value
2022-11-29T00:00:29.547Z,1.04
2022-11-29T00:01:29.670Z,1.04
2022-11-29T00:02:29.914Z,1.04
2022-11-29T00:03:30.071Z,1.04
2022-11-29T00:04:30.149Z,1.04
2022-11-29T00:05:30.296Z,1.04
2022-11-29T00:06:30.410Z,1.04
2022-11-29T00:07:30.582Z,1.04
2022-11-29T00:08:30.691Z,1.04
2022-11-29T00:09:30.847Z,1.04
2022-11-29T00:10:31.007Z,1.04
2022-11-29T00:11:31.165Z,1.04
2022-11-29T00:12:31.301Z,1.04
2022-11-29T00:13:31.447Z,1.04
2022-11-29T00:14:31.596Z,1.04
2022-11-29T00:15:31.717Z,1.04
2022-11-29T00:16:31.887Z,1.04
2022-11-29T00:17:31.958Z,1.04
2022-11-29T00:18:32.110Z,1.04
2022-11-29T00:19:32.268Z,1.04
2022-11-29T00:20:32.427Z,1.04
2022-11-29T00:21:32.511Z,1.04
2022-11-29T00:22:32.663Z,1.04
2022-11-29T00:23:32.777Z,1.04
2022-11-29T00:24:32.917Z,1.04
2022-11-29T00:25:33.065Z,1.04
2022-11-29T00:26:33.221Z,1.04
2022-11-29T00:27:33.319Z,1.04
2022-11-29T00:28:33.481Z,1.04
2022-11-29T00:29:33.634Z,1.04
2022-11-29T00:30:33.831Z,1.04
2022-11-29T00:31:33.911Z,1.04
2022-11-29T00:32:34.056Z,1.04
2022-11-29T00:33:34.184Z,1.04
2022-11-29T00:34:34.334Z,1.04
2022-11-29T00:35:34.481Z,1.04
2022-11-29T00:36:34.638Z,1.04
2022-11-29T00:37:34.825Z,1.04
2022-11-29T00:38:34.992Z,1.04
2022-11-29T00:39:35.141Z,1.04
2022-11-29T00:40:35.283Z,1.04
2022-11-29T00:41:35.432Z,1.04
2022-11-29T00:42:35.592Z,1.04
2022-11-29T00:43:35.742Z,1.04
2022-11-29T00:44:35.911Z,1.04
2022-11-29T00:45:36.124Z,1.04
2022-11-29T00:46:36.188Z,1.04
2022-11-29T00:47:36.330Z,1.04
2022-11-29T00:48:36.438Z,1.04
2022-11-29T00:49:36.624Z,1.04
2022-11-29T00:50:36.754Z,1.04
2022-11-29T00:51:36.901Z,1.04
2022-11-29T00:52:37.056Z,1.04
2022-11-29T00:53:37.205Z,1.04
2022-11-29T00:54:37.355Z,1.04
2022-11-29T00:55:37.459Z,1.04
2022-11-29T00:56:37.616Z,1.04
2022-11-29T00:57:37.758Z,1.04
2022-11-29T00:58:37.916Z,1.04
2022-11-29T00:59:38.068Z,1.04
2022-11-29T01:00:38.215Z,1.04
2022-11-29T01:01:38.414Z,1.04
2022-11-29T01:02:38.524Z,1.04
2022-11-29T01:03:38.607Z,1.04
2022-11-29T01:04:38.778Z,1.04
2022-11-29T01:05:38.936Z,1.04
2022-11-29T01:06:39.038Z,1.04
2022-11-29T01:07:39.240Z,1.04
2022-11-29T01:08:39.329Z,1.04
2022-11-29T01:09:39.434Z,1.04
2022-11-29T01:10:39.586Z,1.04
2022-11-29T01:11:39.738Z,1.04
2022-11-29T01:12:39.888Z,1.04
2022-11-29T01:13:40.035Z,1.04
2022-11-29T01:14:40.205Z,1.04
2022-11-29T01:15:40.282Z,1.04
2022-11-29T01:16:40.486Z,1.04
2022-11-29T01:17:40.546Z,1.04
2022-11-29T01:18:40.699Z,1.04
2022-11-29T01:19:41.706Z,1.04
2022-11-29T01:20:40.991Z,1.04
2022-11-29T01:21:41.107Z,1.04
2022-11-29T01:22:41.256Z,1.04
2022-11-29T01:23:41.393Z,1.04
2022-11-29T01:24:41.628Z,1.04
2022-11-29T01:25:41.653Z,1.04
2022-11-29T01:26:41.809Z,1.04
2022-11-29T01:27:41.969Z,1.04
2022-11-29T01:28:42.111Z,1.04
2022-11-29T01:29:42.259Z,1.04
2022-11-29T01:30:42.475Z,1.04
2022-11-29T01:31:42.516Z,1.04
2022-11-29T01:32:42.667Z,1.04
2022-11-29T01:33:42.836Z,1.04
2022-11-29T01:34:43.285Z,1.04
2022-11-29T01:35:43.120Z,1.04
2022-11-29T01:36:43.267Z,1.04
2022-11-29T01:37:43.425Z,1.04
2022-11-29T01:38:43.580Z,1.04
2022-11-29T01:39:43.757Z,1.04
2022-11-29T01:40:43.876Z,1.04
2022-11-29T01:41:44.023Z,1.04
2022-11-29T01:42:44.191Z,1.04
2022-11-29T01:43:44.328Z,1.04
2022-11-29T01:44:44.617Z,1.04
2022-11-29T01:45:44.654Z,1.04
2022-11-29T01:46:44.678Z,1.04
2022-11-29T01:47:44.833Z,1.04
2022-11-29T01:48:44.999Z,1.04
2022-11-29T01:49:45.136Z,1.04
2022-11-29T01:50:45.294Z,1.04
2022-11-29T01:51:45.446Z,1.04
2022-11-29T01:52:45.592Z,1.04
2022-11-29T01:53:45.687Z,1.04
2022-11-29T01:54:46.087Z,1.04
2022-11-29T01:55:46.038Z,1.04
2022-11-29T01:56:46.157Z,1.04
2022-11-29T01:57:46.300Z,1.04
2022-11-29T01:58:46.451Z,1.04
2022-11-29T01:59:46.567Z,1.04
2022-11-29T02:00:46.696Z,1.04
2022-11-29T02:01:46.892Z,1.04
2022-11-29T02:02:47.019Z,1.04
2022-11-29T02:03:47.104Z,1.04
2022-11-29T02:04:47.531Z,1.04
2022-11-29T02:05:47.356Z,1.04
2022-11-29T02:06:47.510Z,1.04
2022-11-29T02:07:47.626Z,1.04
2022-11-29T02:08:47.727Z,1.04
2022-11-29T02:09:47.877Z,1.04
2022-11-29T02:10:48.028Z,1.04
2022-11-29T02:11:48.174Z,1.04
2022-11-29T02:12:48.274Z,1.04
2022-11-29T02:13:48.431Z,1.04
2022-11-29T02:14:48.601Z,1.04
2022-11-29T02:15:48.749Z,1.04
2022-11-29T02:16:52.264Z,1.04
2022-11-29T02:17:48.940Z,1.04
2022-11-29T02:18:49.081Z,1.04
2022-11-29T02:19:49.239Z,1.04
2022-11-29T02:20:49.383Z,1.04
2022-11-29T02:21:49.490Z,1.04
2022-11-29T02:22:49.641Z,1.04
2022-11-29T02:23:49.787Z,1.04
2022-11-29T02:24:49.946Z,1.04
2022-11-29T02:25:50.089Z,1.04
2022-11-29T02:26:50.241Z,1.04
2022-11-29T02:27:50.397Z,1.04
2022-11-29T02:28:50.556Z,1.04
2022-11-29T02:29:50.649Z,1.04
2022-11-29T02:30:50.825Z,1.04
2022-11-29T02:31:50.960Z,1.04
2022-11-29T02:32:51.091Z,1.04
2022-11-29T02:33:51.262Z,1.04
2022-11-29T02:34:51.415Z,1.04
2022-11-29T02:35:51.567Z,1.04
2022-11-29T02:36:51.707Z,1.04
2022-11-29T02:37:51.864Z,1.04
2022-11-29T02:38:52.019Z,1.04
2022-11-29T02:39:52.166Z,1.04
2022-11-29T02:40:52.317Z,1.04
2022-11-29T02:41:52.470Z,1.04
2022-11-29T02:42:56.685Z,1.04
2022-11-29T02:43:52.780Z,1.04
2022-11-29T02:44:52.927Z,1.04
2022-11-29T02:45:53.080Z,1.04
2022-11-29T02:46:53.208Z,1.04
2022-11-29T02:47:53.327Z,1.04
2022-11-29T02:48:53.476Z,1.04
2022-11-29T02:49:53.582Z,1.04
2022-11-29T02:50:53.742Z,1.04
2022-11-29T02:51:53.833Z,1.04
2022-11-29T02:52:53.988Z,1.04
2022-11-29T02:53:54.129Z,1.04
2022-11-29T02:54:54.285Z,1.04
2022-11-29T02:55:54.441Z,1.04
2022-11-29T02:56:54.583Z,1.04
2022-11-29T02:57:54.746Z,1.04
2022-11-29T02:58:54.891Z,1.04
2022-11-29T02:59:55.042Z,1.04
2022-11-29T03:00:55.187Z,1.04
2022-11-29T03:01:55.319Z,1.04
2022-11-29T03:02:55.477Z,1.04
2022-11-29T03:03:55.565Z,1.04
2022-11-29T03:04:55.701Z,1.04
2022-11-29T03:05:55.848Z,1.04
2022-11-29T03:06:56.001Z,1.04
2022-11-29T03:07:56.156Z,1.04
2022-11-29T03:08:56.259Z,1.04
2022-11-29T03:09:56.369Z,1.04
2022-11-29T03:10:56.501Z,1.04
2022-11-29T03:11:56.612Z,1.04
2022-11-29T03:12:56.758Z,1.04
2022-11-29T03:13:56.914Z,1.04
2022-11-29T03:14:57.072Z,1.04
2022-11-29T03:15:57.242Z,1.04
2022-11-29T03:16:57.363Z,1.04
2022-11-29T03:17:57.523Z,1.04
2022-11-29T03:18:57.730Z,1.04
2022-11-29T03:19:57.822Z,1.04
2022-11-29T03:20:58.024Z,1.04
2022-11-29T03:21:58.137Z,1.04
2022-11-29T03:22:58.229Z,1.04
2022-11-29T03:23:58.377Z,1.04
2022-11-29T03:24:58.536Z,1.04
2022-11-29T03:25:58.679Z,1.04
2022-11-29T03:26:58.829Z,1.04
2022-11-29T03:27:58.975Z,1.04
2022-11-29T03:28:59.136Z,1.04
2022-11-29T03:29:59.288Z,1.04
2022-11-29T03:30:59.454Z,1.04
2022-11-29T03:31:59.579Z,1.04
2022-11-29T03:32:59.743Z,1.04
2022-11-29T03:33:59.898Z,1.04
2022-11-29T03:35:00.049Z,1.04
2022-11-29T03:36:00.208Z,1.04
2022-11-29T03:37:00.296Z,1.04
2022-11-29T03:38:00.459Z,1.04
2022-11-29T03:39:00.593Z,1.04
2022-11-29T03:40:00.751Z,1.04
2022-11-29T03:41:00.910Z,1.04
2022-11-29T03:42:01.054Z,1.04
2022-11-29T03:43:01.207Z,1.04
2022-11-29T03:44:01.318Z,1.04
2022-11-29T03:45:01.456Z,1.04
2022-11-29T03:46:01.647Z,1.04
2022-11-29T03:47:01.746Z,1.04
2022-11-29T03:48:01.861Z,1.04
2022-11-29T03:49:01.970Z,1.04
2022-11-29T03:50:02.144Z,1.04
2022-11-29T03:51:02.264Z,1.04
2022-11-29T03:52:02.431Z,1.04
2022-11-29T03:53:02.571Z,1.04
2022-11-29T03:54:02.721Z,1.04
2022-11-29T03:55:02.881Z,1.04
2022-11-29T03:56:03.030Z,1.04
2022-11-29T03:57:03.171Z,1.04
2022-11-29T03:58:03.333Z,1.04
2022-11-29T03:59:03.483Z,1.04
2022-11-29T04:00:03.630Z,1.04
2022-11-29T04:01:03.781Z,1.04
2022-11-29T04:02:03.937Z,1.04
2022-11-29T04:03:04.086Z,1.04
2022-11-29T04:04:04.230Z,1.04
2022-11-29T04:05:04.384Z,1.04
2022-11-29T04:06:04.534Z,1.04
2022-11-29T04:07:04.693Z,1.04
2022-11-29T04:08:04.852Z,1.04
2022-11-29T04:09:04.999Z,1.04
2022-11-29T04:10:05.148Z,1.04
2022-11-29T04:11:05.247Z,1.04
2022-11-29T04:12:05.400Z,1.04
2022-11-29T04:13:05.552Z,1.04
2022-11-29T04:14:05.712Z,1.04
2022-11-29T04:15:05.808Z,1.04
2022-11-29T04:16:05.936Z,1.04
2022-11-29T04:17:06.021Z,1.04
2022-11-29T04:18:06.142Z,1.04
2022-11-29T04:19:06.308Z,1.04
2022-11-29T04:20:06.461Z,1.04
2022-11-29T04:21:06.611Z,1.04
2022-11-29T04:22:06.760Z,1.04
2022-11-29T04:23:06.914Z,1.04
2022-11-29T04:24:07.063Z,1.04
2022-11-29T04:25:07.223Z,1.04
2022-11-29T04:26:07.379Z,1.04
2022-11-29T04:27:07.517Z,1.04
2022-11-29T04:28:07.671Z,1.04
2022-11-29T04:29:07.824Z,1.04
2022-11-29T04:30:07.974Z,1.04
2022-11-29T04:31:08.145Z,1.04
2022-11-29T04:32:08.232Z,1.04
2022-11-29T04:33:08.363Z,1.04
2022-11-29T04:34:08.466Z,1.04
2022-11-29T04:35:08.578Z,1.04
2022-11-29T04:36:08.714Z,1.04
2022-11-29T04:37:08.882Z,1.04
2022-11-29T04:38:09.043Z,1.04
2022-11-29T04:39:09.140Z,1.04
2022-11-29T04:40:09.281Z,1.04
2022-11-29T04:41:09.446Z,1.04
2022-11-29T04:42:09.598Z,1.04
2022-11-29T04:43:09.698Z,1.04
2022-11-29T04:44:09.861Z,1.04
2022-11-29T04:45:10.001Z,1.04
2022-11-29T04:46:10.168Z,1.04
2022-11-29T04:47:10.238Z,1.04
2022-11-29T04:48:10.413Z,1.04
2022-11-29T04:49:10.559Z,1.04
2022-11-29T04:50:10.729Z,1.04
2022-11-29T04:51:10.839Z,1.04
2022-11-29T04:52:11.006Z,1.04
2022-11-29T04:53:11.180Z,1.04
2022-11-29T04:54:11.310Z,1.04
2022-11-29T04:55:11.410Z,1.04
2022-11-29T04:56:11.518Z,1.04
2022-11-29T04:57:11.666Z,1.04
2022-11-29T04:58:11.765Z,1.04
2022-11-29T04:59:11.919Z,1.04
2022-11-29T05:00:12.037Z,1.04
2022-11-29T05:01:12.209Z,1.04
2022-11-29T05:02:12.282Z,1.04
2022-11-29T05:03:12.358Z,1.04
2022-11-29T05:04:12.529Z,1.04
2022-11-29T05:05:12.677Z,1.04
2022-11-29T05:06:12.826Z,1.04
2022-11-29T05:07:12.989Z,1.04
2022-11-29T05:08:13.130Z,1.04
2022-11-29T05:09:13.282Z,1.04
2022-11-29T05:10:13.442Z,1.04
2022-11-29T05:11:13.623Z,1.04
2022-11-29T05:12:13.737Z,1.04
2022-11-29T05:13:13.886Z,1.04
2022-11-29T05:14:14.036Z,1.04
2022-11-29T05:15:14.193Z,1.04
2022-11-29T05:16:14.365Z,1.04
2022-11-29T05:17:14.497Z,1.04
2022-11-29T05:18:14.644Z,1.04
2022-11-29T05:19:14.804Z,1.04
2022-11-29T05:20:14.947Z,1.04
2022-11-29T05:21:15.100Z,1.04
2022-11-29T05:22:15.254Z,1.04
2022-11-29T05:23:15.418Z,1.04
2022-11-29T05:24:15.553Z,1.04
2022-11-29T05:25:15.716Z,1.04
2022-11-29T05:26:15.849Z,1.04
2022-11-29T05:27:16.016Z,1.04
2022-11-29T05:28:16.163Z,1.04
2022-11-29T05:29:16.306Z,1.04
2022-11-29T05:30:16.467Z,1.04
2022-11-29T05:31:16.676Z,1.04
2022-11-29T05:32:16.758Z,1.04
2022-11-29T05:33:16.920Z,1.04
2022-11-29T05:34:17.070Z,1.04
2022-11-29T05:35:17.226Z,1.04
2022-11-29T05:36:17.372Z,1.04
2022-11-29T05:37:17.538Z,1.04
2022-11-29T05:38:17.632Z,1.04
2022-11-29T05:39:17.777Z,1.04
2022-11-29T05:40:17.883Z,1.04
2022-11-29T05:41:18.031Z,1.04
2022-11-29T05:42:18.180Z,1.04
2022-11-29T05:43:18.329Z,1.04
2022-11-29T05:44:18.428Z,1.04
2022-11-29T05:45:18.582Z,1.04
2022-11-29T05:46:18.741Z,1.04
2022-11-29T05:47:18.771Z,1.04
2022-11-29T05:48:18.932Z,1.04
2022-11-29T05:49:19.095Z,1.04
2022-11-29T05:50:19.249Z,1.04
2022-11-29T05:51:19.398Z,1.04
2022-11-29T05:52:19.549Z,1.04
2022-11-29T05:53:19.652Z,1.04
2022-11-29T05:54:19.790Z,1.04
2022-11-29T05:55:19.913Z,1.04
2022-11-29T05:56:20.056Z,1.04
2022-11-29T05:57:20.215Z,1.04
2022-11-29T05:58:20.713Z,1.04
2022-11-29T05:59:20.497Z,1.04
2022-11-29T06:00:20.655Z,1.04
2022-11-29T06:01:20.743Z,1.04
2022-11-29T06:02:20.971Z,1.04
2022-11-29T06:03:21.053Z,1.04
2022-11-29T06:04:21.160Z,1.04
2022-11-29T06:05:21.309Z,1.04
2022-11-29T06:06:21.463Z,2
2022-11-29T06:07:21.694Z,2
2022-11-29T06:08:21.779Z,2
2022-11-29T06:09:21.918Z,2
2022-11-29T06:10:22.055Z,2
2022-11-29T06:11:22.210Z,2
2022-11-29T06:12:22.383Z,3.04
2022-11-29T06:13:22.483Z,3.04
2022-11-29T06:14:22.631Z,3.04
2022-11-29T06:15:22.726Z,3.04
2022-11-29T06:16:22.932Z,4
2022-11-29T06:17:22.967Z,4
2022-11-29T06:18:23.130Z,5.04
2022-11-29T06:19:23.284Z,6
2022-11-29T06:20:23.439Z,6
2022-11-29T06:21:23.585Z,7.04
2022-11-29T06:22:23.732Z,8
2022-11-29T06:23:23.843Z,10
2022-11-29T06:24:25.845Z,11.04
2022-11-29T06:25:24.082Z,13.04
2022-11-29T06:26:24.192Z,15.04
2022-11-29T06:27:24.333Z,17.04
2022-11-29T06:28:24.435Z,21.04
2022-11-29T06:29:24.591Z,24
2022-11-29T06:30:24.708Z,28
2022-11-29T06:31:24.874Z,33.04
2022-11-29T06:32:24.951Z,38
2022-11-29T06:33:25.095Z,44
2022-11-29T06:34:30.480Z,52
2022-11-29T06:35:25.413Z,59.04
2022-11-29T06:36:25.561Z,69.04
2022-11-29T06:37:25.711Z,77.04
2022-11-29T06:38:25.819Z,87.04
2022-11-29T06:39:25.966Z,93.04
2022-11-29T06:40:26.073Z,101.04
2022-11-29T06:41:26.214Z,110
2022-11-29T06:42:26.363Z,117.04
2022-11-29T06:43:26.527Z,127.04
2022-11-29T06:44:26.628Z,135.04
2022-11-29T06:45:26.772Z,142
2022-11-29T06:46:26.964Z,152
2022-11-29T06:47:27.013Z,161.04
2022-11-29T06:48:27.174Z,170.08
2022-11-29T06:49:27.341Z,183.04
2022-11-29T06:50:27.484Z,194.08
2022-11-29T06:51:27.632Z,210.08
2022-11-29T06:52:27.781Z,222.08
2022-11-29T06:53:27.930Z,238.08
2022-11-29T06:54:28.089Z,252
2022-11-29T06:55:28.235Z,268
2022-11-29T06:56:28.378Z,289.12
2022-11-29T06:57:28.535Z,305.12
2022-11-29T06:58:32.925Z,325.12
2022-11-29T06:59:28.778Z,340.16
2022-11-29T07:00:28.968Z,357.12
2022-11-29T07:01:29.042Z,380.16
2022-11-29T07:02:29.240Z,399.04
2022-11-29T07:03:29.331Z,419.2
2022-11-29T07:04:29.448Z,445.12
2022-11-29T07:05:29.611Z,467.2
2022-11-29T07:06:29.751Z,491.2
2022-11-29T07:07:29.980Z,523.2
2022-11-29T07:08:30.010Z,551.04
2022-11-29T07:09:30.154Z,576
2022-11-29T07:10:30.272Z,609.28
2022-11-29T07:11:30.362Z,636.16
2022-11-29T07:12:30.512Z,662.4
2022-11-29T07:13:30.678Z,689.28
2022-11-29T07:14:30.771Z,709.12
2022-11-29T07:15:30.916Z,728.32
2022-11-29T07:16:31.036Z,751.36
2022-11-29T07:17:31.120Z,773.12
2022-11-29T07:18:31.265Z,798.08
2022-11-29T07:19:31.416Z,832
2022-11-29T07:20:31.570Z,863.36
2022-11-29T07:21:31.723Z,894.08
2022-11-29T07:22:31.838Z,926.08
2022-11-29T07:23:32.014Z,946.56
2022-11-29T07:24:32.141Z,965.12
2022-11-29T07:25:32.287Z,989.44
2022-11-29T07:26:32.446Z,1014.4
2022-11-29T07:27:32.580Z,1042.56
2022-11-29T07:28:32.740Z,1088
2022-11-29T07:29:32.897Z,1124.48
2022-11-29T07:30:33.046Z,1163.52
2022-11-29T07:31:33.196Z,1206.4
2022-11-29T07:32:33.299Z,1240.32
2022-11-29T07:33:33.450Z,1271.04
2022-11-29T07:34:33.627Z,1367.04
2022-11-29T07:35:33.769Z,1409.28
2022-11-29T07:36:33.884Z,1459.2
2022-11-29T07:37:34.050Z,1492.48
2022-11-29T07:38:34.203Z,1514.24
2022-11-29T07:39:34.349Z,1536
2022-11-29T07:40:37.511Z,1547.52
2022-11-29T07:41:34.654Z,1561.6
2022-11-29T07:42:34.799Z,1566.72
2022-11-29T07:43:34.961Z,1566.72
2022-11-29T07:44:35.125Z,1570.56
2022-11-29T07:45:35.248Z,1574.4
2022-11-29T07:46:35.481Z,1584.64
2022-11-29T07:47:36.198Z,1593.6
2022-11-29T07:48:35.710Z,1596.16
2022-11-29T07:49:35.871Z,1611.52
2022-11-29T07:50:35.975Z,1625.6
2022-11-29T07:51:36.113Z,1647.36
2022-11-29T07:52:36.222Z,1658.88
2022-11-29T07:53:36.361Z,1666.56
2022-11-29T07:54:36.534Z,1669.12
2022-11-29T07:55:36.674Z,1664
2022-11-29T07:56:36.782Z,1658.88
2022-11-29T07:57:36.931Z,1655.04
2022-11-29T07:58:37.100Z,1656.32
2022-11-29T07:59:37.242Z,1671.68
2022-11-29T08:00:37.380Z,1683.2
2022-11-29T08:01:37.491Z,1701.12
2022-11-29T08:02:37.612Z,1726.72
2022-11-29T08:03:37.736Z,1749.76
2022-11-29T08:04:37.882Z,1788.16
2022-11-29T08:05:37.979Z,1809.92
2022-11-29T08:06:38.121Z,1849.6
2022-11-29T08:07:38.280Z,1881.6
2022-11-29T08:08:43.647Z,1930.24
2022-11-29T08:09:38.549Z,1978.88
2022-11-29T08:10:38.678Z,2035.2
2022-11-29T08:11:38.827Z,2081.28
2022-11-29T08:12:39.003Z,2117.12
2022-11-29T08:13:39.152Z,2118.4
2022-11-29T08:14:39.299Z,2088.96
2022-11-29T08:15:39.437Z,2067.2
2022-11-29T08:16:39.652Z,2045.44
2022-11-29T08:17:39.761Z,2040.32
2022-11-29T08:18:39.921Z,2036.48
2022-11-29T08:19:40.035Z,2048
2022-11-29T08:20:40.177Z,2074.88
2022-11-29T08:21:40.307Z,2090.24
2022-11-29T08:22:40.414Z,2114.56
2022-11-29T08:23:40.576Z,2120.96
2022-11-29T08:24:40.715Z,2135.04
2022-11-29T08:25:40.876Z,2145.28
2022-11-29T08:26:40.980Z,2137.6
2022-11-29T08:27:41.130Z,2140.16
2022-11-29T08:28:41.228Z,2129.92
2022-11-29T08:29:41.375Z,2117.12
2022-11-29T08:30:41.511Z,2108.16
2022-11-29T08:31:41.692Z,2097.92
2022-11-29T08:32:42.170Z,2097.92
2022-11-29T08:33:42.085Z,2100.48
2022-11-29T08:34:42.239Z,2117.12
2022-11-29T08:35:42.334Z,2144
2022-11-29T08:36:42.497Z,2196.48
2022-11-29T08:37:42.644Z,2250.24
2022-11-29T08:38:42.793Z,2289.92
2022-11-29T08:39:42.941Z,2342.4
2022-11-29T08:40:43.085Z,2448.64
2022-11-29T08:41:43.201Z,2563.84
2022-11-29T08:42:43.341Z,2726.4
2022-11-29T08:43:43.468Z,2867.2
2022-11-29T08:44:43.844Z,3028.48
2022-11-29T08:45:43.822Z,3228.16
2022-11-29T08:46:43.849Z,3435.52
2022-11-29T08:47:44.010Z,3630.08
2022-11-29T08:48:44.151Z,3837.44
2022-11-29T08:49:44.301Z,4052.48
2022-11-29T08:50:44.456Z,4213.76
2022-11-29T08:51:44.615Z,4431.36
2022-11-29T08:52:44.765Z,4613.12
2022-11-29T08:53:44.922Z,4825.6
2022-11-29T08:54:45.377Z,5094.4
2022-11-29T08:55:45.227Z,5319.68
2022-11-29T08:57:31.338Z,5611.52
2022-11-29T08:57:45.504Z,5862.4
2022-11-29T08:58:45.624Z,6118.4
2022-11-29T08:59:45.773Z,6400
2022-11-29T09:00:45.923Z,6497.28
2022-11-29T09:01:46.109Z,6584.32
2022-11-29T09:02:46.185Z,6568.96
2022-11-29T09:03:46.334Z,6553.6
2022-11-29T09:04:46.734Z,6497.28
2022-11-29T09:05:46.577Z,6451.2
2022-11-29T09:06:46.681Z,6400
2022-11-29T09:07:46.807Z,6379.52
2022-11-29T09:08:46.937Z,6338.56
2022-11-29T09:09:47.083Z,6297.6
2022-11-29T09:10:47.237Z,6277.12
2022-11-29T09:11:49.522Z,6287.36
2022-11-29T09:12:47.493Z,6405.12
2022-11-29T09:13:47.642Z,6645.76
2022-11-29T09:14:47.790Z,6784
2022-11-29T09:15:47.929Z,6917.12
2022-11-29T09:16:48.139Z,7024.64
2022-11-29T09:17:48.253Z,7162.88
2022-11-29T09:18:51.600Z,7270.4
2022-11-29T09:19:48.517Z,7408.64
2022-11-29T09:20:48.653Z,7480.32
2022-11-29T09:21:48.799Z,7495.68
2022-11-29T09:22:48.953Z,7464.96
2022-11-29T09:23:49.109Z,7408.64
2022-11-29T09:24:49.257Z,7326.72
2022-11-29T09:25:49.409Z,7183.36
2022-11-29T09:26:49.512Z,7055.36
2022-11-29T09:27:49.651Z,6912
2022-11-29T09:28:49.809Z,6743.04
2022-11-29T09:29:49.965Z,6584.32
2022-11-29T09:30:50.108Z,6389.76
2022-11-29T09:31:50.500Z,6205.44
2022-11-29T09:32:50.368Z,6067.2
2022-11-29T09:33:50.464Z,5949.44
2022-11-29T09:34:50.624Z,5811.2
2022-11-29T09:35:50.776Z,5703.68
2022-11-29T09:36:50.916Z,5560.32
2022-11-29T09:37:51.078Z,5437.44
2022-11-29T09:38:51.223Z,5314.56
2022-11-29T09:39:51.331Z,5214.72
2022-11-29T09:40:51.482Z,5155.84
2022-11-29T09:41:51.634Z,5145.6
2022-11-29T09:42:51.771Z,5189.12
2022-11-29T09:43:51.928Z,5227.52
2022-11-29T09:44:52.079Z,5253.12
2022-11-29T09:45:52.238Z,5258.24
2022-11-29T09:46:57.309Z,5248
2022-11-29T09:47:52.491Z,5194.24
2022-11-29T09:48:52.638Z,5112.32
2022-11-29T09:49:52.756Z,5094.4
2022-11-29T09:50:52.923Z,5168.64
2022-11-29T09:51:53.157Z,5299.2
2022-11-29T09:52:53.288Z,5514.24
2022-11-29T09:53:53.435Z,5760
2022-11-29T09:54:53.500Z,6154.24
2022-11-29T09:55:53.646Z,6558.72
2022-11-29T09:56:53.807Z,6963.2
2022-11-29T09:57:53.945Z,7434.24
2022-11-29T09:58:54.105Z,7741.44
2022-11-29T09:59:54.560Z,7976.96
2022-11-29T10:00:54.894Z,8053.76
2022-11-29T10:01:54.982Z,8110.08
2022-11-29T10:02:54.682Z,8217.6
2022-11-29T10:03:54.820Z,8330.24
2022-11-29T10:04:54.961Z,8468.479
2022-11-29T10:05:55.111Z,8616.96
2022-11-29T10:06:55.268Z,8755.2
2022-11-29T10:07:55.452Z,8960
2022-11-29T10:08:55.585Z,9072.64
2022-11-29T10:09:55.727Z,9159.68
2022-11-29T10:10:55.887Z,9154.56
2022-11-29T10:11:56.025Z,9077.76
2022-11-29T10:12:56.179Z,8939.52
2022-11-29T10:13:56.330Z,8883.2
2022-11-29T10:14:56.482Z,8811.52
2022-11-29T10:15:56.612Z,8755.2
2022-11-29T10:16:56.830Z,8698.88
2022-11-29T10:17:56.929Z,8606.72
2022-11-29T10:18:57.083Z,8560.64
2022-11-29T10:19:57.246Z,8545.28
2022-11-29T10:20:57.337Z,8519.68
2022-11-29T10:21:57.497Z,8488.96
2022-11-29T10:22:57.591Z,8432.64
2022-11-29T10:23:57.720Z,8371.2
2022-11-29T10:24:57.856Z,8330.24
2022-11-29T10:25:57.991Z,8273.92
2022-11-29T10:26:58.097Z,8217.6
2022-11-29T10:27:58.253Z,8212.48
2022-11-29T10:28:58.393Z,8207.36
2022-11-29T10:29:58.547Z,8186.88
2022-11-29T10:30:58.711Z,8176.64
2022-11-29T10:31:58.770Z,8161.28
2022-11-29T10:32:58.854Z,8145.92
2022-11-29T10:33:59.009Z,8130.56
2022-11-29T10:34:59.154Z,8069.12
2022-11-29T10:35:59.324Z,8028.16
2022-11-29T10:36:59.434Z,7966.72
2022-11-29T10:38:28.933Z,7879.68
2022-11-29T10:38:59.661Z,7746.56
2022-11-29T10:39:59.773Z,7613.44
2022-11-29T10:40:59.922Z,7552
2022-11-29T10:42:00.037Z,7470.08
2022-11-29T10:43:00.176Z,7424
2022-11-29T10:44:00.523Z,7418.88
2022-11-29T10:45:00.682Z,7418.88
2022-11-29T10:46:00.869Z,7383.04
2022-11-29T10:47:00.912Z,7280.64
2022-11-29T10:48:01.073Z,7178.24
2022-11-29T10:49:01.163Z,7127.04
2022-11-29T10:50:01.347Z,7091.2
2022-11-29T10:51:01.477Z,7096.32
2022-11-29T10:52:01.618Z,7162.88
2022-11-29T10:53:01.790Z,7296
2022-11-29T10:54:01.880Z,7572.48
2022-11-29T10:55:02.005Z,7802.88
2022-11-29T10:56:02.142Z,8043.52
2022-11-29T10:57:02.294Z,8376.32
2022-11-29T10:58:02.429Z,8637.439
2022-11-29T10:59:02.577Z,8913.92
2022-11-29T11:00:02.728Z,9210.88
2022-11-29T11:01:02.870Z,9431.04
2022-11-29T11:02:02.931Z,9768.96
2022-11-29T11:03:03.045Z,10112
2022-11-29T11:04:03.203Z,10547.2
2022-11-29T11:05:03.371Z,10792.96
2022-11-29T11:06:03.499Z,10956.8
2022-11-29T11:07:03.608Z,11018.24
2022-11-29T11:08:03.758Z,10926.08
2022-11-29T11:09:03.970Z,10803.2
2022-11-29T11:10:04.047Z,10711.04
2022-11-29T11:11:04.168Z,10711.04
2022-11-29T11:12:04.318Z,10731.52
2022-11-29T11:13:04.417Z,10680.319
2022-11-29T11:14:04.585Z,10557.439
2022-11-29T11:15:04.725Z,10449.92
2022-11-29T11:16:04.810Z,10280.96
2022-11-29T11:17:05.325Z,10178.56
2022-11-29T11:18:05.477Z,10158.08
2022-11-29T11:19:05.620Z,10275.84
2022-11-29T11:20:05.384Z,10444.8
2022-11-29T11:21:05.515Z,10680.319
2022-11-29T11:22:05.683Z,10813.439
2022-11-29T11:23:05.828Z,10895.359
2022-11-29T11:24:05.981Z,10946.56
2022-11-29T11:25:06.140Z,11018.24
2022-11-29T11:26:06.285Z,11274.24
2022-11-29T11:27:06.438Z,11653.12
2022-11-29T11:28:06.581Z,12062.72
2022-11-29T11:29:06.760Z,12175.359
2022-11-29T11:30:06.867Z,12134.399
2022-11-29T11:31:07.129Z,12011.52
2022-11-29T11:32:07.136Z,11694.08
2022-11-29T11:33:07.286Z,11427.84
2022-11-29T11:34:07.442Z,11141.12
2022-11-29T11:35:07.594Z,11008
2022-11-29T11:36:07.742Z,10977.279
2022-11-29T11:37:07.861Z,11008
2022-11-29T11:38:08.003Z,10997.76
2022-11-29T11:39:08.160Z,10967.04
2022-11-29T11:40:08.368Z,10864.64
2022-11-29T11:41:08.457Z,10700.8
2022-11-29T11:42:08.596Z,10526.72
2022-11-29T11:43:08.707Z,10275.84
2022-11-29T11:44:15.179Z,9968.64
2022-11-29T11:45:09.014Z,9758.72
2022-11-29T11:46:10.050Z,9564.16
2022-11-29T11:47:09.277Z,9323.52
2022-11-29T11:48:09.415Z,9159.68
2022-11-29T11:49:09.570Z,8878.08
2022-11-29T11:50:09.722Z,8657.92
2022-11-29T11:51:09.861Z,8442.88
2022-11-29T11:52:10.012Z,8202.24
2022-11-29T11:53:10.165Z,8023.04
2022-11-29T11:54:10.324Z,7895.04
2022-11-29T11:55:10.475Z,7690.24
2022-11-29T11:56:10.635Z,7552
2022-11-29T11:57:10.775Z,7505.92
2022-11-29T11:58:10.990Z,7480.32
2022-11-29T11:59:11.034Z,7490.56
2022-11-29T12:00:11.186Z,7454.72
2022-11-29T12:01:11.336Z,7367.68
2022-11-29T12:02:11.548Z,7224.32
2022-11-29T12:03:11.700Z,7055.36
2022-11-29T12:04:11.736Z,7009.28
2022-11-29T12:05:11.923Z,7070.72
2022-11-29T12:06:12.079Z,7116.8
2022-11-29T12:07:12.180Z,7178.24
2022-11-29T12:08:12.326Z,7208.96
2022-11-29T12:09:12.398Z,7168
2022-11-29T12:10:12.595Z,7106.56
2022-11-29T12:11:12.693Z,7014.4
2022-11-29T12:12:12.862Z,6912
2022-11-29T12:13:13.009Z,6784
2022-11-29T12:14:13.161Z,6671.36
2022-11-29T12:15:13.252Z,6512.64
2022-11-29T12:16:13.449Z,6389.76
2022-11-29T12:17:18.525Z,6225.92
2022-11-29T12:18:13.612Z,6108.16
2022-11-29T12:19:13.774Z,6010.88
2022-11-29T12:20:13.918Z,5908.48
2022-11-29T12:21:14.057Z,5841.92
2022-11-29T12:22:14.227Z,5744.64
2022-11-29T12:23:14.421Z,5626.88
2022-11-29T12:24:14.526Z,5514.24
2022-11-29T12:25:14.667Z,5391.36
2022-11-29T12:26:23.866Z,5314.56
2022-11-29T12:27:15.045Z,5278.72
2022-11-29T12:28:19.963Z,5278.72
2022-11-29T12:29:15.285Z,5273.6
2022-11-29T12:30:15.437Z,5242.88
2022-11-29T12:31:15.618Z,5166.08
2022-11-29T12:32:15.720Z,5125.12
2022-11-29T12:33:15.897Z,5096.96
2022-11-29T12:34:18.480Z,5099.52
2022-11-29T12:35:18.731Z,5112.32
2022-11-29T12:36:16.247Z,5117.44
2022-11-29T12:37:16.383Z,5125.12
2022-11-29T12:38:16.539Z,5135.36
2022-11-29T12:39:16.689Z,5135.36
2022-11-29T12:40:16.850Z,5120
2022-11-29T12:41:16.989Z,5112.32
2022-11-29T12:42:17.145Z,5112.32
2022-11-29T12:43:17.242Z,5102.08
2022-11-29T12:44:17.401Z,5073.92
2022-11-29T12:45:17.550Z,5035.52
2022-11-29T12:46:17.716Z,4992
2022-11-29T12:47:36.334Z,4943.36
2022-11-29T12:48:17.948Z,4879.36
2022-11-29T12:49:18.100Z,4846.08